createdAt,value
2023-03-21T00:04:33.190Z,52.08
2023-03-21T00:09:40.861Z,52.35
2023-03-21T00:14:43.609Z,53.00
2023-03-21T00:19:46.651Z,53.12
2023-03-21T00:24:49.262Z,52.77
2023-03-21T00:29:51.971Z,52.81
2023-03-21T00:35:13.706Z,53.07
2023-03-21T00:40:27.666Z,53.18
2023-03-21T00:45:33.663Z,53.97
2023-03-21T00:50:39.142Z,53.93
2023-03-21T00:55:42.241Z,53.79
2023-03-21T01:00:47.236Z,53.81
2023-03-21T01:06:08.264Z,54.01
2023-03-21T01:11:18.486Z,54.52
2023-03-21T01:16:21.138Z,54.54
2023-03-21T01:21:23.950Z,55.33
2023-03-21T01:26:26.544Z,55.26
2023-03-21T01:31:29.180Z,55.37
2023-03-21T01:36:32.032Z,55.40
2023-03-21T01:41:44.650Z,55.73
2023-03-21T01:47:13.039Z,55.74
2023-03-21T01:52:36.658Z,55.85
2023-03-21T01:58:04.002Z,56.59
2023-03-21T02:03:26.304Z,56.41
2023-03-21T02:08:42.541Z,56.64
2023-03-21T02:13:53.598Z,57.01
2023-03-21T02:19:08.250Z,57.40
2023-03-21T02:24:29.316Z,57.35
2023-03-21T02:29:47.188Z,57.44
2023-03-21T02:34:52.807Z,57.54
2023-03-21T02:40:14.896Z,57.62
2023-03-21T02:45:26.172Z,57.83
2023-03-21T02:50:55.660Z,57.82
2023-03-21T02:56:01.194Z,58.55
2023-03-21T03:01:09.321Z,59.25
2023-03-21T03:06:27.201Z,59.00
2023-03-21T03:11:42.179Z,59.54
2023-03-21T03:17:07.886Z,59.99
2023-03-21T03:22:16.518Z,60.04
2023-03-21T03:27:25.150Z,60.05
2023-03-21T03:32:47.357Z,61.66
2023-03-21T03:37:56.835Z,61.58
2023-03-21T03:43:07.724Z,61.94
2023-03-21T03:48:26.588Z,61.41
2023-03-21T03:53:38.332Z,60.28
2023-03-21T03:58:46.040Z,60.11
2023-03-21T04:04:03.559Z,59.41
2023-03-21T04:09:21.045Z,58.95
2023-03-21T04:14:35.610Z,57.84
2023-03-21T04:19:46.606Z,57.56
2023-03-21T04:24:49.439Z,57.04
2023-03-21T04:29:52.181Z,57.08
2023-03-21T04:35:21.624Z,56.88
2023-03-21T04:40:25.775Z,55.79
2023-03-21T04:45:31.109Z,55.51
2023-03-21T04:50:33.693Z,55.95
2023-03-21T04:55:37.382Z,54.72
2023-03-21T05:00:40.901Z,52.96
2023-03-21T05:05:43.560Z,50.11
2023-03-21T05:10:46.716Z,48.25
2023-03-21T05:15:49.638Z,46.77
2023-03-21T05:20:54.476Z,46.41
2023-03-21T05:25:58.412Z,44.95
2023-03-21T05:31:20.677Z,43.53
2023-03-21T05:36:27.431Z,41.79
2023-03-21T05:41:30.575Z,40.27
2023-03-21T05:46:34.883Z,38.58
2023-03-21T05:51:38.234Z,37.79
2023-03-21T05:56:42.284Z,35.04
2023-03-21T06:01:47.698Z,35.41
2023-03-21T06:06:53.777Z,36.08
2023-03-21T06:11:58.696Z,33.61
2023-03-21T06:17:21.504Z,32.21
2023-03-21T06:22:32.878Z,31.89
2023-03-21T06:27:37.464Z,31.41
2023-03-21T06:32:42.400Z,30.39
2023-03-21T06:37:49.651Z,29.22
2023-03-21T06:42:53.788Z,29.45
2023-03-21T06:47:56.470Z,29.16
2023-03-21T06:53:07.014Z,29.50
2023-03-21T06:58:25.409Z,29.97
2023-03-21T07:03:30.158Z,30.13
2023-03-21T07:08:37.443Z,29.34
2023-03-21T07:13:40.916Z,28.30
2023-03-21T07:18:44.230Z,28.67
2023-03-21T07:23:50.426Z,28.27
2023-03-21T07:28:53.249Z,29.03
2023-03-21T07:33:56.897Z,28.46
2023-03-21T07:38:59.637Z,28.79
2023-03-21T07:44:03.958Z,27.74
2023-03-21T07:49:09.238Z,27.89
2023-03-21T07:54:11.996Z,27.69
2023-03-21T07:59:14.644Z,27.35
2023-03-21T08:04:17.312Z,28.53
2023-03-21T08:09:20.073Z,28.73
2023-03-21T08:14:22.703Z,27.62
2023-03-21T08:19:27.427Z,26.95
2023-03-21T08:24:30.456Z,25.84
2023-03-21T08:29:33.477Z,26.23
2023-03-21T08:34:37.726Z,25.49
2023-03-21T08:39:43.771Z,24.69
2023-03-21T08:44:52.557Z,24.46
2023-03-21T08:50:01.659Z,24.03
2023-03-21T08:55:10.147Z,23.35
2023-03-21T09:00:18.378Z,23.30
2023-03-21T09:05:27.588Z,24.14
2023-03-21T09:10:32.977Z,24.17
2023-03-21T09:15:35.678Z,23.86
2023-03-21T09:20:38.607Z,23.96
2023-03-21T09:25:42.549Z,23.91
2023-03-21T09:30:45.200Z,22.94
2023-03-21T09:35:49.093Z,22.63
2023-03-21T09:41:10.244Z,22.12
2023-03-21T09:46:27.944Z,21.80
2023-03-21T09:51:36.020Z,21.41
2023-03-21T09:56:42.751Z,21.93
2023-03-21T10:01:48.790Z,22.10
2023-03-21T10:07:02.102Z,21.63
2023-03-21T10:12:15.027Z,21.31
2023-03-21T10:17:34.365Z,21.61
2023-03-21T10:22:37.700Z,21.28
2023-03-21T10:27:40.842Z,20.58
2023-03-21T10:32:43.431Z,20.43
2023-03-21T10:37:46.945Z,20.69
2023-03-21T10:42:49.545Z,20.42
2023-03-21T10:47:52.814Z,20.82
2023-03-21T10:53:00.859Z,20.99
2023-03-21T10:58:19.132Z,21.87
2023-03-21T11:03:34.165Z,23.70
2023-03-21T11:08:45.267Z,23.46
2023-03-21T11:13:57.472Z,22.98
2023-03-21T11:19:13.751Z,23.22
2023-03-21T11:24:20.029Z,23.25
2023-03-21T11:29:36.350Z,23.55
2023-03-21T11:34:45.023Z,22.21
2023-03-21T11:39:56.661Z,22.22
2023-03-21T11:45:11.793Z,21.80
2023-03-21T11:50:14.396Z,21.81
2023-03-21T11:55:33.285Z,22.31
2023-03-21T12:00:57.554Z,22.76
2023-03-21T12:06:06.687Z,23.71
2023-03-21T12:11:21.629Z,24.08
2023-03-21T12:16:49.800Z,23.48
2023-03-21T12:22:06.772Z,22.89
2023-03-21T12:27:24.505Z,22.48
2023-03-21T12:32:58.196Z,22.87
2023-03-21T12:38:18.566Z,24.82
2023-03-21T12:43:41.332Z,24.62
2023-03-21T12:48:48.636Z,24.27
2023-03-21T12:53:56.955Z,24.78
2023-03-21T12:59:23.177Z,25.42
2023-03-21T13:04:34.873Z,28.00
2023-03-21T13:09:40.751Z,28.26
2023-03-21T13:14:57.212Z,29.00
2023-03-21T13:20:11.104Z,29.12
2023-03-21T13:25:21.592Z,29.35
2023-03-21T13:30:27.462Z,29.98
2023-03-21T13:35:54.651Z,30.14
2023-03-21T13:41:01.964Z,30.02
2023-03-21T13:46:11.623Z,28.84
2023-03-21T13:51:14.583Z,28.23
2023-03-21T13:56:27.896Z,28.06
2023-03-21T14:02:15.916Z,27.29
2023-03-21T14:07:35.849Z,27.75
2023-03-21T14:13:12.295Z,27.90
2023-03-21T14:18:28.445Z,28.01
2023-03-21T14:23:44.440Z,28.09
2023-03-21T14:28:52.407Z,28.27
2023-03-21T14:33:59.168Z,28.45
2023-03-21T14:39:13.061Z,28.44
2023-03-21T14:44:27.138Z,28.72
2023-03-21T14:49:33.044Z,28.92
2023-03-21T14:54:38.449Z,29.49
2023-03-21T14:59:45.754Z,29.86
2023-03-21T15:04:56.075Z,30.16
2023-03-21T15:10:04.105Z,30.34
2023-03-21T15:15:08.040Z,30.93
2023-03-21T15:20:21.404Z,30.99
2023-03-21T15:25:33.409Z,31.16
2023-03-21T15:30:36.342Z,31.43
2023-03-21T15:35:42.048Z,31.67
2023-03-21T15:40:45.747Z,31.89
2023-03-21T15:45:57.259Z,32.30
2023-03-21T15:51:07.553Z,32.54
2023-03-21T15:56:18.317Z,32.40
2023-03-21T16:01:28.010Z,32.69
2023-03-21T16:07:12.822Z,32.45
2023-03-21T16:12:34.931Z,32.60
2023-03-21T16:17:43.215Z,32.55
2023-03-21T16:22:55.426Z,32.48
2023-03-21T16:28:13.664Z,32.69
2023-03-21T16:33:22.633Z,32.99
2023-03-21T16:38:32.644Z,32.89
2023-03-21T16:43:43.429Z,33.27
2023-03-21T16:48:49.235Z,33.34
2023-03-21T16:53:52.910Z,33.37
2023-03-21T16:58:57.353Z,33.47
2023-03-21T17:04:00.457Z,33.64
2023-03-21T17:09:05.947Z,33.94
2023-03-21T17:14:10.224Z,33.78
2023-03-21T17:19:20.359Z,33.47
2023-03-21T17:24:35.685Z,33.42
2023-03-21T17:29:39.724Z,34.07
2023-03-21T17:34:43.008Z,33.80
2023-03-21T17:39:46.373Z,33.63
2023-03-21T17:44:48.978Z,34.17
2023-03-21T17:49:53.397Z,33.67
2023-03-21T17:54:56.019Z,33.73
2023-03-21T17:59:58.704Z,34.04
2023-03-21T18:05:01.654Z,34.23
2023-03-21T18:10:06.189Z,34.01
2023-03-21T18:15:14.389Z,34.27
2023-03-21T18:20:21.244Z,34.11
2023-03-21T18:25:24.928Z,34.09
2023-03-21T18:30:50.112Z,34.40
2023-03-21T18:35:58.668Z,34.06
2023-03-21T18:41:02.185Z,33.99
2023-03-21T18:46:07.845Z,34.41
2023-03-21T18:51:10.866Z,34.69
2023-03-21T18:56:57.657Z,35.09
2023-03-21T19:01:37.516Z,35.02
2023-03-21T19:06:41.659Z,35.10
2023-03-21T19:11:44.338Z,35.72
2023-03-21T19:17:26.996Z,36.14
2023-03-21T19:22:11.547Z,36.04
2023-03-21T19:27:15.000Z,36.30
2023-03-21T19:32:17.556Z,36.20
2023-03-21T19:37:20.395Z,36.47
2023-03-21T19:42:28.373Z,36.61
2023-03-21T19:47:32.953Z,36.65
2023-03-21T19:52:37.738Z,36.80
2023-03-21T19:57:40.322Z,37.42
2023-03-21T20:02:45.531Z,37.25
2023-03-21T20:07:48.679Z,37.21
2023-03-21T20:12:51.580Z,37.19
2023-03-21T20:17:54.234Z,37.48
2023-03-21T20:23:06.660Z,38.00
2023-03-21T20:28:16.258Z,38.30
2023-03-21T20:33:25.426Z,38.33
2023-03-21T20:38:27.963Z,39.08
2023-03-21T20:48:54.002Z,38.85
2023-03-21T20:53:56.921Z,38.79
2023-03-21T20:59:15.345Z,38.72
2023-03-21T21:04:20.811Z,38.43
2023-03-21T21:09:23.805Z,38.45
2023-03-21T21:14:26.306Z,38.68
2023-03-21T21:19:28.839Z,38.57
2023-03-21T21:24:34.177Z,38.98
2023-03-21T21:29:37.428Z,39.09
2023-03-21T21:34:39.929Z,39.79
2023-03-21T21:39:42.484Z,39.63
2023-03-21T21:44:45.455Z,40.18
2023-03-21T21:49:47.974Z,40.72
2023-03-21T21:54:50.821Z,41.10
2023-03-21T21:59:54.618Z,41.41
2023-03-21T22:04:57.624Z,41.51
2023-03-21T22:10:00.206Z,41.75
2023-03-21T22:15:04.420Z,42.00
2023-03-21T22:20:10.028Z,42.11
2023-03-21T22:25:15.232Z,42.06
2023-03-21T22:30:18.823Z,42.01
2023-03-21T22:35:21.480Z,41.92
2023-03-21T22:40:24.576Z,42.48
2023-03-21T22:45:27.191Z,42.46
2023-03-21T22:50:29.904Z,42.88
2023-03-21T22:55:32.468Z,42.88
2023-03-21T23:00:34.955Z,43.00
2023-03-21T23:05:41.968Z,42.94
2023-03-21T23:10:46.179Z,43.13
2023-03-21T23:15:48.827Z,43.42
2023-03-21T23:20:51.698Z,43.26
2023-03-21T23:25:54.310Z,43.95
2023-03-21T23:30:56.992Z,43.86
2023-03-21T23:35:59.497Z,44.25
2023-03-21T23:41:04.176Z,44.37
2023-03-21T23:46:07.514Z,44.84
2023-03-21T23:51:12.114Z,44.80
2023-03-21T23:56:21.403Z,45.19
